sensor_id;sensor_type;location;lat;lon;timestamp;noise_LAeq;noise_LA_min;noise_LA_max;noise_LA01;noise_LA95
68279;Laerm;55108;51.790;10.960;2023-06-14T00:00:17;32.06;27.58;37.51;;
68279;Laerm;55108;51.790;10.960;2023-06-14T00:02:43;30.77;27.50;36.87;;
68279;Laerm;55108;51.790;10.960;2023-06-14T00:05:08;28.04;26.72;35.75;;
68279;Laerm;55108;51.790;10.960;2023-06-14T00:07:40;34.23;27.35;45.33;;
68279;Laerm;55108;51.790;10.960;2023-06-14T00:10:09;52.54;27.73;69.72;;
68279;Laerm;55108;51.790;10.960;2023-06-14T00:12:35;30.41;26.90;36.22;;
68279;Laerm;55108;51.790;10.960;2023-06-14T00:15:01;40.21;27.82;55.39;;
68279;Laerm;55108;51.790;10.960;2023-06-14T00:17:27;37.23;29.57;47.60;;
68279;Laerm;55108;51.790;10.960;2023-06-14T00:19:56;41.17;27.64;63.79;;
68279;Laerm;55108;51.790;10.960;2023-06-14T00:22:22;31.08;27.55;39.25;;
68279;Laerm;55108;51.790;10.960;2023-06-14T00:24:49;32.56;28.20;42.46;;
68279;Laerm;55108;51.790;10.960;2023-06-14T00:27:15;30.52;27.61;43.58;;
68279;Laerm;55108;51.790;10.960;2023-06-14T00:29:41;33.59;26.79;50.43;;
68279;Laerm;55108;51.790;10.960;2023-06-14T00:32:06;61.42;27.31;78.55;;
68279;Laerm;55108;51.790;10.960;2023-06-14T00:34:32;31.74;27.28;41.64;;
68279;Laerm;55108;51.790;10.960;2023-06-14T00:36:58;28.84;26.88;35.48;;
68279;Laerm;55108;51.790;10.960;2023-06-14T00:39:24;30.45;26.86;38.50;;
68279;Laerm;55108;51.790;10.960;2023-06-14T00:41:50;27.90;26.72;32.60;;
68279;Laerm;55108;51.790;10.960;2023-06-14T00:44:16;37.78;26.70;55.31;;
68279;Laerm;55108;51.790;10.960;2023-06-14T00:46:42;29.82;27.25;40.77;;
68279;Laerm;55108;51.790;10.960;2023-06-14T00:49:09;30.00;27.31;36.73;;
68279;Laerm;55108;51.790;10.960;2023-06-14T00:51:35;30.01;27.21;41.36;;
68279;Laerm;55108;51.790;10.960;2023-06-14T00:54:02;29.52;27.15;40.53;;
68279;Laerm;55108;51.790;10.960;2023-06-14T00:56:28;31.48;27.14;37.42;;
68279;Laerm;55108;51.790;10.960;2023-06-14T00:58:54;52.34;26.91;71.54;;
68279;Laerm;55108;51.790;10.960;2023-06-14T01:01:20;51.74;28.24;71.30;;
68279;Laerm;55108;51.790;10.960;2023-06-14T01:03:46;60.63;28.86;80.43;;
68279;Laerm;55108;51.790;10.960;2023-06-14T01:11:58;60.04;26.81;77.50;;
68279;Laerm;55108;51.790;10.960;2023-06-14T01:14:25;46.81;27.24;59.61;;
68279;Laerm;55108;51.790;10.960;2023-06-14T01:16:51;31.78;28.29;41.58;;
68279;Laerm;55108;51.790;10.960;2023-06-14T01:19:18;29.31;26.84;40.39;;
68279;Laerm;55108;51.790;10.960;2023-06-14T01:21:44;33.67;26.71;60.44;;
68279;Laerm;55108;51.790;10.960;2023-06-14T01:24:10;34.61;27.22;45.06;;
68279;Laerm;55108;51.790;10.960;2023-06-14T01:26:36;30.53;26.86;40.48;;
68279;Laerm;55108;51.790;10.960;2023-06-14T01:29:03;33.03;27.11;44.37;;
68279;Laerm;55108;51.790;10.960;2023-06-14T01:31:29;34.12;26.89;41.96;;
68279;Laerm;55108;51.790;10.960;2023-06-14T01:34:04;57.82;27.67;73.56;;
68279;Laerm;55108;51.790;10.960;2023-06-14T01:36:30;35.43;28.90;46.19;;
68279;Laerm;55108;51.790;10.960;2023-06-14T01:38:56;55.52;29.06;72.63;;
68279;Laerm;55108;51.790;10.960;2023-06-14T01:41:23;39.49;28.02;52.99;;
68279;Laerm;55108;51.790;10.960;2023-06-14T01:43:49;39.41;29.35;54.29;;
68279;Laerm;55108;51.790;10.960;2023-06-14T01:46:15;41.95;30.82;56.74;;
68279;Laerm;55108;51.790;10.960;2023-06-14T01:48:41;40.66;29.63;56.73;;
68279;Laerm;55108;51.790;10.960;2023-06-14T01:51:07;55.43;31.13;73.46;;
68279;Laerm;55108;51.790;10.960;2023-06-14T01:53:33;38.44;31.10;48.07;;
68279;Laerm;55108;51.790;10.960;2023-06-14T01:55:58;38.15;29.74;46.47;;
68279;Laerm;55108;51.790;10.960;2023-06-14T01:58:25;38.79;29.37;46.72;;
68279;Laerm;55108;51.790;10.960;2023-06-14T02:00:51;56.75;30.38;74.78;;
68279;Laerm;55108;51.790;10.960;2023-06-14T02:03:20;38.29;30.10;47.88;;
68279;Laerm;55108;51.790;10.960;2023-06-14T02:05:45;39.77;32.86;47.66;;
68279;Laerm;55108;51.790;10.960;2023-06-14T02:08:11;54.29;31.96;75.43;;
68279;Laerm;55108;51.790;10.960;2023-06-14T02:10:37;63.13;33.99;84.77;;
68279;Laerm;55108;51.790;10.960;2023-06-14T02:13:03;61.36;35.44;80.13;;
68279;Laerm;55108;51.790;10.960;2023-06-14T02:15:28;43.42;33.77;55.50;;
68279;Laerm;55108;51.790;10.960;2023-06-14T02:17:59;43.27;32.08;55.59;;
68279;Laerm;55108;51.790;10.960;2023-06-14T02:20:25;58.55;32.85;72.72;;
68279;Laerm;55108;51.790;10.960;2023-06-14T02:22:50;59.19;33.37;77.03;;
68279;Laerm;55108;51.790;10.960;2023-06-14T02:25:16;42.65;32.20;50.78;;
68279;Laerm;55108;51.790;10.960;2023-06-14T02:27:42;41.79;34.65;51.63;;
68279;Laerm;55108;51.790;10.960;2023-06-14T02:30:08;65.95;38.89;83.40;;
68279;Laerm;55108;51.790;10.960;2023-06-14T02:32:34;58.81;37.92;74.56;;
68279;Laerm;55108;51.790;10.960;2023-06-14T02:35:00;62.40;34.61;81.74;;
68279;Laerm;55108;51.790;10.960;2023-06-14T02:37:26;63.87;36.58;80.88;;
68279;Laerm;55108;51.790;10.960;2023-06-14T02:39:52;62.71;38.56;77.49;;
68279;Laerm;55108;51.790;10.960;2023-06-14T02:42:17;60.19;37.24;72.72;;
68279;Laerm;55108;51.790;10.960;2023-06-14T02:44:43;54.90;35.63;69.18;;
68279;Laerm;55108;51.790;10.960;2023-06-14T02:47:10;50.58;36.33;59.34;;
68279;Laerm;55108;51.790;10.960;2023-06-14T02:49:35;65.49;40.52;84.56;;
68279;Laerm;55108;51.790;10.960;2023-06-14T02:52:01;50.15;35.27;61.92;;
68279;Laerm;55108;51.790;10.960;2023-06-14T02:54:27;58.25;34.50;75.48;;
68279;Laerm;55108;51.790;10.960;2023-06-14T02:56:53;62.11;39.11;74.92;;
68279;Laerm;55108;51.790;10.960;2023-06-14T02:59:19;51.48;33.93;61.26;;
68279;Laerm;55108;51.790;10.960;2023-06-14T03:01:46;65.14;35.15;79.63;;
68279;Laerm;55108;51.790;10.960;2023-06-14T03:04:12;63.36;38.27;75.66;;
68279;Laerm;55108;51.790;10.960;2023-06-14T03:06:38;62.69;35.53;82.48;;
68279;Laerm;55108;51.790;10.960;2023-06-14T03:09:04;60.86;37.17;75.78;;
68279;Laerm;55108;51.790;10.960;2023-06-14T03:11:31;60.97;35.63;73.65;;
68279;Laerm;55108;51.790;10.960;2023-06-14T03:13:57;58.62;35.79;74.54;;
68279;Laerm;55108;51.790;10.960;2023-06-14T03:16:23;62.07;35.66;76.12;;
68279;Laerm;55108;51.790;10.960;2023-06-14T03:18:49;45.59;35.07;63.51;;
68279;Laerm;55108;51.790;10.960;2023-06-14T03:21:15;67.53;37.55;80.79;;
68279;Laerm;55108;51.790;10.960;2023-06-14T03:23:42;67.66;38.43;83.69;;
68279;Laerm;55108;51.790;10.960;2023-06-14T03:26:07;65.78;39.12;81.34;;
68279;Laerm;55108;51.790;10.960;2023-06-14T03:28:33;63.17;38.10;77.90;;
68279;Laerm;55108;51.790;10.960;2023-06-14T03:30:59;64.82;38.04;77.54;;
68279;Laerm;55108;51.790;10.960;2023-06-14T03:33:26;66.54;35.31;82.11;;
68279;Laerm;55108;51.790;10.960;2023-06-14T03:35:52;57.59;38.06;71.78;;
68279;Laerm;55108;51.790;10.960;2023-06-14T03:38:18;63.18;38.32;76.14;;
68279;Laerm;55108;51.790;10.960;2023-06-14T03:40:43;64.69;39.04;76.32;;
68279;Laerm;55108;51.790;10.960;2023-06-14T03:43:10;66.71;39.96;83.76;;
68279;Laerm;55108;51.790;10.960;2023-06-14T03:45:36;67.51;38.53;80.73;;
68279;Laerm;55108;51.790;10.960;2023-06-14T03:48:01;65.68;39.31;77.45;;
68279;Laerm;55108;51.790;10.960;2023-06-14T03:50:27;66.90;46.78;82.27;;
68279;Laerm;55108;51.790;10.960;2023-06-14T03:52:53;60.25;36.32;76.93;;
68279;Laerm;55108;51.790;10.960;2023-06-14T03:55:19;67.86;37.61;82.08;;
68279;Laerm;55108;51.790;10.960;2023-06-14T03:57:45;67.48;39.46;79.80;;
68279;Laerm;55108;51.790;10.960;2023-06-14T04:00:10;68.54;42.25;83.59;;
68279;Laerm;55108;51.790;10.960;2023-06-14T04:02:37;67.20;43.19;77.04;;
68279;Laerm;55108;51.790;10.960;2023-06-14T04:05:03;65.01;39.79;78.81;;
68279;Laerm;55108;51.790;10.960;2023-06-14T04:07:33;64.59;41.26;77.06;;
68279;Laerm;55108;51.790;10.960;2023-06-14T04:10:06;65.60;39.23;79.44;;
68279;Laerm;55108;51.790;10.960;2023-06-14T04:12:31;66.42;39.06;83.07;;
68279;Laerm;55108;51.790;10.960;2023-06-14T04:14:57;65.36;39.85;77.62;;
68279;Laerm;55108;51.790;10.960;2023-06-14T04:17:23;65.69;41.25;79.08;;
68279;Laerm;55108;51.790;10.960;2023-06-14T04:19:48;67.74;45.95;80.11;;
68279;Laerm;55108;51.790;10.960;2023-06-14T04:22:14;68.38;40.08;82.12;;
68279;Laerm;55108;51.790;10.960;2023-06-14T04:24:40;69.51;49.19;81.74;;
68279;Laerm;55108;51.790;10.960;2023-06-14T04:27:07;60.50;37.93;73.95;;
68279;Laerm;55108;51.790;10.960;2023-06-14T04:29:33;68.38;46.16;83.67;;
68279;Laerm;55108;51.790;10.960;2023-06-14T04:31:59;66.09;41.98;82.98;;
68279;Laerm;55108;51.790;10.960;2023-06-14T04:34:25;65.42;38.94;77.56;;
68279;Laerm;55108;51.790;10.960;2023-06-14T04:36:55;65.20;38.22;76.99;;
68279;Laerm;55108;51.790;10.960;2023-06-14T04:39:21;67.75;41.87;78.44;;
68279;Laerm;55108;51.790;10.960;2023-06-14T04:41:47;67.55;44.84;81.24;;
68279;Laerm;55108;51.790;10.960;2023-06-14T04:44:16;67.01;41.17;82.16;;
68279;Laerm;55108;51.790;10.960;2023-06-14T04:46:44;66.99;41.95;79.60;;
68279;Laerm;55108;51.790;10.960;2023-06-14T04:49:13;67.82;45.95;82.73;;
68279;Laerm;55108;51.790;10.960;2023-06-14T04:51:40;66.52;45.69;79.87;;
68279;Laerm;55108;51.790;10.960;2023-06-14T04:54:06;68.41;48.43;78.62;;
68279;Laerm;55108;51.790;10.960;2023-06-14T04:56:38;67.18;43.38;75.56;;
68279;Laerm;55108;51.790;10.960;2023-06-14T04:59:03;66.97;43.88;77.45;;
68279;Laerm;55108;51.790;10.960;2023-06-14T05:01:32;64.70;39.33;76.36;;
68279;Laerm;55108;51.790;10.960;2023-06-14T05:03:58;66.56;47.22;76.08;;
68279;Laerm;55108;51.790;10.960;2023-06-14T05:06:24;68.32;42.84;78.81;;
68279;Laerm;55108;51.790;10.960;2023-06-14T05:08:51;69.05;49.86;80.24;;
68279;Laerm;55108;51.790;10.960;2023-06-14T05:11:17;67.44;47.74;77.06;;
68279;Laerm;55108;51.790;10.960;2023-06-14T05:13:42;68.49;42.08;77.71;;
68279;Laerm;55108;51.790;10.960;2023-06-14T05:16:09;67.81;43.80;77.87;;
68279;Laerm;55108;51.790;10.960;2023-06-14T05:18:36;66.16;44.97;77.07;;
68279;Laerm;55108;51.790;10.960;2023-06-14T05:21:02;64.10;42.47;76.05;;
68279;Laerm;55108;51.790;10.960;2023-06-14T05:23:29;65.75;41.87;79.35;;
68279;Laerm;55108;51.790;10.960;2023-06-14T05:25:55;68.61;42.29;81.83;;
68279;Laerm;55108;51.790;10.960;2023-06-14T05:28:21;68.66;52.45;82.19;;
68279;Laerm;55108;51.790;10.960;2023-06-14T05:30:47;68.48;46.24;81.55;;
68279;Laerm;55108;51.790;10.960;2023-06-14T05:33:13;66.29;47.15;75.58;;
68279;Laerm;55108;51.790;10.960;2023-06-14T05:35:38;67.56;44.52;80.45;;
68279;Laerm;55108;51.790;10.960;2023-06-14T05:38:04;69.34;41.40;82.96;;
68279;Laerm;55108;51.790;10.960;2023-06-14T05:40:30;68.16;49.20;79.33;;
68279;Laerm;55108;51.790;10.960;2023-06-14T05:42:56;68.62;48.06;79.86;;
68279;Laerm;55108;51.790;10.960;2023-06-14T05:45:22;66.58;44.99;76.48;;
68279;Laerm;55108;51.790;10.960;2023-06-14T05:47:47;69.69;47.24;80.44;;
68279;Laerm;55108;51.790;10.960;2023-06-14T05:50:13;64.76;52.03;74.91;;
68279;Laerm;55108;51.790;10.960;2023-06-14T05:52:39;69.55;46.58;79.79;;
68279;Laerm;55108;51.790;10.960;2023-06-14T05:55:05;67.29;46.18;77.52;;
68279;Laerm;55108;51.790;10.960;2023-06-14T05:57:31;65.79;41.65;80.53;;
68279;Laerm;55108;51.790;10.960;2023-06-14T05:59:56;65.97;45.57;77.58;;
68279;Laerm;55108;51.790;10.960;2023-06-14T06:02:22;68.47;48.67;81.86;;
68279;Laerm;55108;51.790;10.960;2023-06-14T06:04:48;67.64;43.57;78.98;;
68279;Laerm;55108;51.790;10.960;2023-06-14T06:07:13;65.59;46.71;76.45;;
68279;Laerm;55108;51.790;10.960;2023-06-14T06:09:39;67.46;47.34;81.99;;
68279;Laerm;55108;51.790;10.960;2023-06-14T06:12:06;64.59;44.40;73.32;;
68279;Laerm;55108;51.790;10.960;2023-06-14T06:14:32;64.49;46.85;79.11;;
68279;Laerm;55108;51.790;10.960;2023-06-14T06:16:57;66.31;43.87;78.50;;
68279;Laerm;55108;51.790;10.960;2023-06-14T06:19:23;69.29;45.94;83.65;;
68279;Laerm;55108;51.790;10.960;2023-06-14T06:21:49;66.38;45.05;76.04;;
68279;Laerm;55108;51.790;10.960;2023-06-14T06:24:15;66.41;43.87;78.66;;
68279;Laerm;55108;51.790;10.960;2023-06-14T06:26:41;66.48;47.71;77.24;;
68279;Laerm;55108;51.790;10.960;2023-06-14T06:29:06;67.60;49.86;77.51;;
68279;Laerm;55108;51.790;10.960;2023-06-14T06:31:32;66.28;39.93;79.66;;
68279;Laerm;55108;51.790;10.960;2023-06-14T06:33:58;70.20;49.09;83.81;;
68279;Laerm;55108;51.790;10.960;2023-06-14T06:36:24;70.29;46.41;88.76;;
68279;Laerm;55108;51.790;10.960;2023-06-14T06:38:49;68.93;44.15;80.68;;
68279;Laerm;55108;51.790;10.960;2023-06-14T06:41:15;67.51;47.11;80.09;;
68279;Laerm;55108;51.790;10.960;2023-06-14T06:43:41;68.51;43.44;84.85;;
68279;Laerm;55108;51.790;10.960;2023-06-14T06:46:06;65.37;39.15;76.43;;
68279;Laerm;55108;51.790;10.960;2023-06-14T06:48:32;68.46;43.09;82.56;;
68279;Laerm;55108;51.790;10.960;2023-06-14T06:50:58;65.34;42.15;76.07;;
68279;Laerm;55108;51.790;10.960;2023-06-14T06:53:23;70.12;45.34;82.36;;
68279;Laerm;55108;51.790;10.960;2023-06-14T06:55:49;69.28;49.39;81.15;;
68279;Laerm;55108;51.790;10.960;2023-06-14T06:58:15;70.06;48.40;81.70;;
68279;Laerm;55108;51.790;10.960;2023-06-14T07:00:41;67.68;46.19;80.96;;
68279;Laerm;55108;51.790;10.960;2023-06-14T07:03:06;64.69;44.49;75.32;;
68279;Laerm;55108;51.790;10.960;2023-06-14T07:05:33;68.75;49.32;80.83;;
68279;Laerm;55108;51.790;10.960;2023-06-14T07:07:58;65.35;41.28;74.28;;
68279;Laerm;55108;51.790;10.960;2023-06-14T07:10:24;65.29;43.11;77.48;;
68279;Laerm;55108;51.790;10.960;2023-06-14T07:12:50;66.30;42.47;79.00;;
68279;Laerm;55108;51.790;10.960;2023-06-14T07:15:16;68.94;49.02;80.76;;
68279;Laerm;55108;51.790;10.960;2023-06-14T07:17:42;68.86;49.38;81.06;;
68279;Laerm;55108;51.790;10.960;2023-06-14T07:20:07;67.75;47.30;81.16;;
68279;Laerm;55108;51.790;10.960;2023-06-14T07:22:36;66.08;42.31;79.96;;
68279;Laerm;55108;51.790;10.960;2023-06-14T07:25:02;65.58;40.62;79.53;;
68279;Laerm;55108;51.790;10.960;2023-06-14T07:27:28;66.63;45.77;73.68;;
68279;Laerm;55108;51.790;10.960;2023-06-14T07:29:53;67.89;45.10;79.34;;
68279;Laerm;55108;51.790;10.960;2023-06-14T07:32:19;67.47;48.38;79.22;;
68279;Laerm;55108;51.790;10.960;2023-06-14T07:34:45;69.17;45.64;81.47;;
68279;Laerm;55108;51.790;10.960;2023-06-14T07:37:11;66.91;45.60;77.40;;
68279;Laerm;55108;51.790;10.960;2023-06-14T07:39:36;67.67;45.79;76.08;;
68279;Laerm;55108;51.790;10.960;2023-06-14T07:42:02;67.01;49.09;77.49;;
68279;Laerm;55108;51.790;10.960;2023-06-14T07:44:29;67.91;48.07;80.01;;
68279;Laerm;55108;51.790;10.960;2023-06-14T07:46:56;68.58;54.02;84.89;;
68279;Laerm;55108;51.790;10.960;2023-06-14T07:49:24;67.48;51.75;78.50;;
68279;Laerm;55108;51.790;10.960;2023-06-14T07:51:50;66.30;41.50;82.02;;
68279;Laerm;55108;51.790;10.960;2023-06-14T07:54:16;69.76;51.87;87.03;;
68279;Laerm;55108;51.790;10.960;2023-06-14T07:56:42;67.59;43.55;82.82;;
68279;Laerm;55108;51.790;10.960;2023-06-14T07:59:07;65.91;45.61;75.74;;
68279;Laerm;55108;51.790;10.960;2023-06-14T08:01:34;66.35;46.02;77.98;;
68279;Laerm;55108;51.790;10.960;2023-06-14T08:04:00;68.07;41.39;81.11;;
68279;Laerm;55108;51.790;10.960;2023-06-14T08:06:26;65.99;43.29;77.73;;
68279;Laerm;55108;51.790;10.960;2023-06-14T08:08:52;67.52;44.96;78.04;;
68279;Laerm;55108;51.790;10.960;2023-06-14T08:11:18;68.31;49.22;81.71;;
68279;Laerm;55108;51.790;10.960;2023-06-14T08:13:44;68.50;48.25;86.22;;
68279;Laerm;55108;51.790;10.960;2023-06-14T08:16:09;67.79;44.99;78.48;;
68279;Laerm;55108;51.790;10.960;2023-06-14T08:18:35;66.62;49.28;77.60;;
68279;Laerm;55108;51.790;10.960;2023-06-14T08:21:01;63.56;44.15;74.71;;
68279;Laerm;55108;51.790;10.960;2023-06-14T08:23:28;66.83;47.81;79.22;;
68279;Laerm;55108;51.790;10.960;2023-06-14T08:25:53;67.59;45.89;78.85;;
68279;Laerm;55108;51.790;10.960;2023-06-14T08:28:20;65.01;43.61;74.89;;
68279;Laerm;55108;51.790;10.960;2023-06-14T08:30:45;65.00;43.07;76.02;;
68279;Laerm;55108;51.790;10.960;2023-06-14T08:33:11;65.80;44.69;77.00;;
68279;Laerm;55108;51.790;10.960;2023-06-14T08:35:37;66.37;47.78;78.17;;
68279;Laerm;55108;51.790;10.960;2023-06-14T08:38:04;67.26;48.79;78.54;;
68279;Laerm;55108;51.790;10.960;2023-06-14T08:40:30;65.81;44.26;75.57;;
68279;Laerm;55108;51.790;10.960;2023-06-14T08:42:56;69.47;52.39;76.79;;
68279;Laerm;55108;51.790;10.960;2023-06-14T08:45:22;66.72;44.27;78.00;;
68279;Laerm;55108;51.790;10.960;2023-06-14T08:47:48;68.10;47.34;80.76;;
68279;Laerm;55108;51.790;10.960;2023-06-14T08:50:22;69.39;51.29;82.15;;
68279;Laerm;55108;51.790;10.960;2023-06-14T08:52:51;68.84;52.06;81.92;;
68279;Laerm;55108;51.790;10.960;2023-06-14T08:55:18;67.12;50.66;75.19;;
68279;Laerm;55108;51.790;10.960;2023-06-14T08:57:45;67.23;43.47;78.97;;
68279;Laerm;55108;51.790;10.960;2023-06-14T09:00:12;65.50;44.32;75.48;;
68279;Laerm;55108;51.790;10.960;2023-06-14T09:02:41;67.19;44.67;80.58;;
68279;Laerm;55108;51.790;10.960;2023-06-14T09:05:09;65.76;49.12;80.44;;
68279;Laerm;55108;51.790;10.960;2023-06-14T09:07:35;66.21;47.31;76.42;;
68279;Laerm;55108;51.790;10.960;2023-06-14T09:10:11;65.24;48.86;76.73;;
68279;Laerm;55108;51.790;10.960;2023-06-14T09:12:37;66.63;45.86;77.86;;
68279;Laerm;55108;51.790;10.960;2023-06-14T09:15:04;65.25;47.43;75.67;;
68279;Laerm;55108;51.790;10.960;2023-06-14T09:17:37;67.00;51.36;76.55;;
68279;Laerm;55108;51.790;10.960;2023-06-14T09:20:03;65.66;47.25;75.98;;
68279;Laerm;55108;51.790;10.960;2023-06-14T09:22:36;69.45;50.34;83.67;;
68279;Laerm;55108;51.790;10.960;2023-06-14T09:25:02;65.60;47.01;79.30;;
68279;Laerm;55108;51.790;10.960;2023-06-14T09:27:29;66.05;43.39;80.81;;
68279;Laerm;55108;51.790;10.960;2023-06-14T09:29:54;65.58;45.99;75.65;;
68279;Laerm;55108;51.790;10.960;2023-06-14T09:32:23;67.99;44.65;78.69;;
68279;Laerm;55108;51.790;10.960;2023-06-14T09:34:50;69.76;45.58;80.04;;
68279;Laerm;55108;51.790;10.960;2023-06-14T09:37:28;68.15;48.04;78.02;;
68279;Laerm;55108;51.790;10.960;2023-06-14T09:39:54;69.49;47.82;82.47;;
68279;Laerm;55108;51.790;10.960;2023-06-14T09:42:20;68.27;44.59;83.94;;
68279;Laerm;55108;51.790;10.960;2023-06-14T09:44:48;65.74;49.10;75.76;;
68279;Laerm;55108;51.790;10.960;2023-06-14T09:47:15;67.33;47.11;77.82;;
68279;Laerm;55108;51.790;10.960;2023-06-14T09:49:41;67.69;44.73;81.46;;
68279;Laerm;55108;51.790;10.960;2023-06-14T09:52:07;67.10;47.95;77.07;;
68279;Laerm;55108;51.790;10.960;2023-06-14T09:54:36;67.17;46.51;77.08;;
68279;Laerm;55108;51.790;10.960;2023-06-14T09:57:07;64.77;44.36;75.83;;
68279;Laerm;55108;51.790;10.960;2023-06-14T09:59:35;67.02;46.66;78.24;;
68279;Laerm;55108;51.790;10.960;2023-06-14T10:02:04;66.17;47.36;78.21;;
68279;Laerm;55108;51.790;10.960;2023-06-14T10:04:33;67.82;49.97;83.05;;
68279;Laerm;55108;51.790;10.960;2023-06-14T10:06:59;67.88;45.74;83.78;;
68279;Laerm;55108;51.790;10.960;2023-06-14T10:09:27;66.84;48.77;78.83;;
68279;Laerm;55108;51.790;10.960;2023-06-14T10:11:53;66.14;46.49;80.74;;
68279;Laerm;55108;51.790;10.960;2023-06-14T10:14:20;66.34;44.62;77.98;;
68279;Laerm;55108;51.790;10.960;2023-06-14T10:19:25;65.77;47.49;75.99;;
68279;Laerm;55108;51.790;10.960;2023-06-14T10:22:01;66.69;46.58;80.64;;
68279;Laerm;55108;51.790;10.960;2023-06-14T10:24:29;69.70;49.68;80.50;;
68279;Laerm;55108;51.790;10.960;2023-06-14T10:26:57;68.88;48.17;82.68;;
68279;Laerm;55108;51.790;10.960;2023-06-14T10:29:23;65.81;42.99;75.71;;
68279;Laerm;55108;51.790;10.960;2023-06-14T10:31:50;68.79;46.61;82.80;;
68279;Laerm;55108;51.790;10.960;2023-06-14T10:37:06;68.33;47.91;80.97;;
68279;Laerm;55108;51.790;10.960;2023-06-14T10:39:33;65.67;46.67;76.97;;
68279;Laerm;55108;51.790;10.960;2023-06-14T10:42:01;67.26;48.26;78.86;;
68279;Laerm;55108;51.790;10.960;2023-06-14T10:46:55;66.74;46.24;76.74;;
68279;Laerm;55108;51.790;10.960;2023-06-14T10:49:40;67.41;44.67;82.74;;
68279;Laerm;55108;51.790;10.960;2023-06-14T10:52:13;66.97;47.50;76.78;;
68279;Laerm;55108;51.790;10.960;2023-06-14T10:57:31;68.65;50.77;78.38;;
68279;Laerm;55108;51.790;10.960;2023-06-14T11:00:00;66.12;50.64;75.03;;
68279;Laerm;55108;51.790;10.960;2023-06-14T11:02:51;66.43;46.25;79.31;;
68279;Laerm;55108;51.790;10.960;2023-06-14T11:05:26;67.05;50.30;75.47;;
68279;Laerm;55108;51.790;10.960;2023-06-14T11:08:04;63.69;47.49;73.10;;
68279;Laerm;55108;51.790;10.960;2023-06-14T11:10:36;67.31;48.20;77.25;;
68279;Laerm;55108;51.790;10.960;2023-06-14T11:13:02;67.09;44.53;81.70;;
68279;Laerm;55108;51.790;10.960;2023-06-14T11:15:35;67.40;44.48;82.96;;
68279;Laerm;55108;51.790;10.960;2023-06-14T11:18:05;65.44;46.23;76.18;;
68279;Laerm;55108;51.790;10.960;2023-06-14T11:20:31;67.67;54.54;79.22;;
68279;Laerm;55108;51.790;10.960;2023-06-14T11:22:57;66.71;51.31;77.48;;
68279;Laerm;55108;51.790;10.960;2023-06-14T11:25:24;67.51;51.49;78.42;;
68279;Laerm;55108;51.790;10.960;2023-06-14T11:27:50;66.12;45.50;76.47;;
68279;Laerm;55108;51.790;10.960;2023-06-14T11:30:16;65.52;49.56;76.53;;
68279;Laerm;55108;51.790;10.960;2023-06-14T11:32:42;65.22;48.29;75.65;;
68279;Laerm;55108;51.790;10.960;2023-06-14T11:35:08;66.52;48.87;79.83;;
68279;Laerm;55108;51.790;10.960;2023-06-14T11:37:35;68.95;48.10;80.37;;
68279;Laerm;55108;51.790;10.960;2023-06-14T11:40:02;64.88;47.42;76.60;;
68279;Laerm;55108;51.790;10.960;2023-06-14T11:42:33;65.92;50.83;74.18;;
68279;Laerm;55108;51.790;10.960;2023-06-14T11:44:59;70.01;53.43;84.48;;
68279;Laerm;55108;51.790;10.960;2023-06-14T11:47:24;62.92;49.66;72.16;;
68279;Laerm;55108;51.790;10.960;2023-06-14T11:49:50;68.88;50.25;83.15;;
68279;Laerm;55108;51.790;10.960;2023-06-14T11:52:16;65.42;47.04;76.34;;
68279;Laerm;55108;51.790;10.960;2023-06-14T11:54:42;66.19;45.94;78.79;;
68279;Laerm;55108;51.790;10.960;2023-06-14T11:57:07;69.63;50.81;82.20;;
68279;Laerm;55108;51.790;10.960;2023-06-14T11:59:39;65.82;52.31;75.30;;
68279;Laerm;55108;51.790;10.960;2023-06-14T12:02:06;65.84;48.10;74.94;;
68279;Laerm;55108;51.790;10.960;2023-06-14T12:04:32;67.51;48.51;80.35;;
68279;Laerm;55108;51.790;10.960;2023-06-14T12:06:57;68.79;48.17;81.61;;
68279;Laerm;55108;51.790;10.960;2023-06-14T12:09:36;66.33;45.50;75.41;;
68279;Laerm;55108;51.790;10.960;2023-06-14T12:12:02;67.50;49.21;87.16;;
68279;Laerm;55108;51.790;10.960;2023-06-14T12:14:31;67.81;47.17;80.96;;
68279;Laerm;55108;51.790;10.960;2023-06-14T12:17:04;66.84;46.28;76.30;;
68279;Laerm;55108;51.790;10.960;2023-06-14T12:19:30;65.36;45.60;76.93;;
68279;Laerm;55108;51.790;10.960;2023-06-14T12:21:57;68.07;49.97;78.15;;
68279;Laerm;55108;51.790;10.960;2023-06-14T12:24:27;65.15;45.69;75.88;;
68279;Laerm;55108;51.790;10.960;2023-06-14T12:26:53;66.85;45.73;75.71;;
68279;Laerm;55108;51.790;10.960;2023-06-14T12:29:19;65.65;45.08;74.36;;
68279;Laerm;55108;51.790;10.960;2023-06-14T12:31:45;65.61;46.06;80.48;;
68279;Laerm;55108;51.790;10.960;2023-06-14T12:34:11;65.33;47.91;72.57;;
68279;Laerm;55108;51.790;10.960;2023-06-14T12:36:36;67.05;44.19;78.13;;
68279;Laerm;55108;51.790;10.960;2023-06-14T12:39:09;65.09;43.84;76.24;;
68279;Laerm;55108;51.790;10.960;2023-06-14T12:41:35;67.16;47.29;78.34;;
68279;Laerm;55108;51.790;10.960;2023-06-14T12:44:01;68.46;48.06;80.34;;
68279;Laerm;55108;51.790;10.960;2023-06-14T12:46:30;68.67;47.28;80.80;;
68279;Laerm;55108;51.790;10.960;2023-06-14T12:48:56;65.02;44.27;80.13;;
68279;Laerm;55108;51.790;10.960;2023-06-14T12:51:21;66.80;49.57;74.41;;
68279;Laerm;55108;51.790;10.960;2023-06-14T12:53:48;69.18;50.61;85.08;;
68279;Laerm;55108;51.790;10.960;2023-06-14T12:56:14;68.86;53.11;83.78;;
68279;Laerm;55108;51.790;10.960;2023-06-14T12:58:41;66.85;49.70;75.59;;
68279;Laerm;55108;51.790;10.960;2023-06-14T13:01:06;67.57;45.27;76.53;;
68279;Laerm;55108;51.790;10.960;2023-06-14T13:03:32;67.41;46.30;78.16;;
68279;Laerm;55108;51.790;10.960;2023-06-14T13:05:59;66.23;48.62;79.08;;
68279;Laerm;55108;51.790;10.960;2023-06-14T13:08:25;67.57;46.69;76.10;;
68279;Laerm;55108;51.790;10.960;2023-06-14T13:10:50;68.38;48.67;78.76;;
68279;Laerm;55108;51.790;10.960;2023-06-14T13:13:16;69.00;48.63;84.50;;
68279;Laerm;55108;51.790;10.960;2023-06-14T13:15:42;68.22;48.15;77.19;;
68279;Laerm;55108;51.790;10.960;2023-06-14T13:18:08;69.28;55.01;80.55;;
68279;Laerm;55108;51.790;10.960;2023-06-14T13:20:34;67.21;53.51;83.35;;
68279;Laerm;55108;51.790;10.960;2023-06-14T13:23:00;66.21;53.87;75.60;;
68279;Laerm;55108;51.790;10.960;2023-06-14T13:25:27;67.50;48.88;79.42;;
68279;Laerm;55108;51.790;10.960;2023-06-14T13:27:52;65.92;46.75;75.76;;
68279;Laerm;55108;51.790;10.960;2023-06-14T13:30:18;67.67;47.05;78.97;;
68279;Laerm;55108;51.790;10.960;2023-06-14T13:32:44;67.77;45.56;78.45;;
68279;Laerm;55108;51.790;10.960;2023-06-14T13:35:09;67.24;44.75;77.27;;
68279;Laerm;55108;51.790;10.960;2023-06-14T13:37:35;67.83;45.58;81.38;;
68279;Laerm;55108;51.790;10.960;2023-06-14T13:40:01;67.24;49.39;75.36;;
68279;Laerm;55108;51.790;10.960;2023-06-14T13:42:27;67.92;50.14;75.59;;
68279;Laerm;55108;51.790;10.960;2023-06-14T13:44:54;68.63;50.50;77.19;;